createdAt,value
2023-04-11T00:00:56.066Z,101340.72
2023-04-11T00:03:23.185Z,101341.28
2023-04-11T00:05:50.562Z,101379.72
2023-04-11T00:08:17.534Z,101346.59
2023-04-11T00:10:45.659Z,101361.47
2023-04-11T00:13:12.731Z,101351.34
2023-04-11T00:15:39.597Z,101350.34
2023-04-11T00:18:07.270Z,101334.13
2023-04-11T00:20:34.289Z,101356.81
2023-04-11T00:23:01.221Z,101286.91
2023-04-11T00:25:30.205Z,101361.50
2023-04-11T00:27:57.346Z,101331.75
2023-04-11T00:30:24.112Z,101360.81
2023-04-11T00:32:51.155Z,101355.72
2023-04-11T00:35:18.241Z,101367.25
2023-04-11T00:37:45.697Z,101356.22
2023-04-11T00:40:14.385Z,101347.16
2023-04-11T00:42:41.370Z,101354.41
2023-04-11T00:45:08.743Z,101328.59
2023-04-11T00:47:35.627Z,101360.22
2023-04-11T00:50:02.523Z,101365.81
2023-04-11T00:52:29.263Z,101363.75
2023-04-11T00:54:56.116Z,101353.94
2023-04-11T00:57:26.224Z,101350.72
2023-04-11T00:59:53.004Z,101352.84
2023-04-11T01:02:19.816Z,101261.53
2023-04-11T01:04:46.881Z,101305.03
2023-04-11T01:07:13.708Z,101175.75
2023-04-11T01:09:40.517Z,101313.34
2023-04-11T01:12:07.456Z,101275.91
2023-04-11T01:14:34.271Z,101296.66
2023-04-11T01:17:02.425Z,101292.00
2023-04-11T01:19:29.537Z,101263.91
2023-04-11T01:21:56.648Z,101240.25
2023-04-11T01:24:23.529Z,101294.84
2023-04-11T01:26:50.381Z,101242.78
2023-04-11T01:29:17.119Z,101273.28
2023-04-11T01:31:44.146Z,101269.16
2023-04-11T01:34:13.578Z,101274.47
2023-04-11T01:36:41.810Z,101271.44
2023-04-11T01:39:08.629Z,101266.16
2023-04-11T01:41:35.986Z,101230.69
2023-04-11T01:44:04.205Z,101270.03
2023-04-11T01:46:31.412Z,101258.63
2023-04-11T01:48:59.134Z,101289.41
2023-04-11T01:51:26.203Z,101213.38
2023-04-11T01:53:52.919Z,101282.94
2023-04-11T01:56:19.800Z,101262.78
2023-04-11T01:58:46.598Z,101192.03
2023-04-11T02:01:13.532Z,101223.69
2023-04-11T02:03:40.833Z,101233.91
2023-04-11T02:06:07.840Z,101265.78
2023-04-11T02:08:34.689Z,101259.69
2023-04-11T02:11:01.641Z,101259.59
2023-04-11T02:13:28.411Z,101262.41
2023-04-11T02:15:55.127Z,101231.03
2023-04-11T02:18:21.992Z,101238.06
2023-04-11T02:20:50.266Z,101255.91
2023-04-11T02:23:17.090Z,101244.31
2023-04-11T02:25:44.013Z,101208.78
2023-04-11T02:28:10.875Z,101233.72
2023-04-11T02:30:37.797Z,101239.72
2023-04-11T02:33:04.850Z,101211.78
2023-04-11T02:35:31.697Z,101244.75
2023-04-11T02:37:58.763Z,101236.84
2023-04-11T02:40:26.111Z,101241.88
2023-04-11T02:42:55.425Z,101250.56
2023-04-11T02:45:22.375Z,101226.97
2023-04-11T02:47:49.242Z,101235.66
2023-04-11T02:50:16.204Z,101236.94
2023-04-11T02:52:46.583Z,101209.13
2023-04-11T02:55:14.530Z,101209.34
2023-04-11T02:57:41.322Z,101182.53
2023-04-11T03:00:09.682Z,101193.88
2023-04-11T03:02:36.826Z,101225.19
2023-04-11T03:05:04.344Z,101182.13
2023-04-11T03:07:32.439Z,101197.69
2023-04-11T03:10:02.341Z,101166.59
2023-04-11T03:12:29.171Z,101194.16
2023-04-11T03:14:55.939Z,101190.66
2023-04-11T03:17:22.852Z,101215.38
2023-04-11T03:19:49.717Z,101055.03
2023-04-11T03:22:17.446Z,101168.03
2023-04-11T03:24:44.369Z,101201.28
2023-04-11T03:27:11.180Z,101192.91
2023-04-11T03:29:38.372Z,101201.19
2023-04-11T03:32:05.630Z,101174.91
2023-04-11T03:34:32.686Z,101148.81
2023-04-11T03:36:59.502Z,101200.59
2023-04-11T03:39:26.694Z,101173.56
2023-04-11T03:41:53.545Z,101199.72
2023-04-11T03:44:20.342Z,101156.16
2023-04-11T03:46:47.093Z,101156.44
2023-04-11T03:49:13.949Z,101164.16
2023-04-11T03:51:40.947Z,101132.16
2023-04-11T03:54:07.728Z,101171.69
2023-04-11T03:56:34.589Z,101179.47
2023-04-11T03:59:01.781Z,101165.47
2023-04-11T04:01:28.610Z,101174.53
2023-04-11T04:03:56.132Z,101172.00
2023-04-11T04:06:23.353Z,101152.97
2023-04-11T04:08:50.099Z,101148.16
2023-04-11T04:11:17.054Z,101149.81
2023-04-11T04:13:43.846Z,101134.31
2023-04-11T04:16:10.714Z,101167.50
2023-04-11T04:18:37.651Z,101128.44
2023-04-11T04:21:04.483Z,101103.00
2023-04-11T04:23:32.603Z,101141.25
2023-04-11T04:26:02.460Z,101167.59
2023-04-11T04:28:29.616Z,101164.00
2023-04-11T04:30:58.234Z,101130.72
2023-04-11T04:33:26.408Z,101155.00
2023-04-11T04:35:58.228Z,101171.25
2023-04-11T04:38:26.373Z,101154.84
2023-04-11T04:40:54.981Z,101174.53
2023-04-11T04:43:23.161Z,101154.47
2023-04-11T04:45:50.274Z,101148.25
2023-04-11T04:48:17.561Z,101146.81
2023-04-11T04:50:45.843Z,101155.72
2023-04-11T04:53:13.205Z,101155.16
2023-04-11T04:55:39.925Z,101157.25
2023-04-11T04:58:06.660Z,101148.84
2023-04-11T05:00:33.861Z,101142.97
2023-04-11T05:03:00.835Z,101136.28
2023-04-11T05:05:27.725Z,101140.31
2023-04-11T05:07:54.548Z,101140.09
2023-04-11T05:10:21.437Z,101064.44
2023-04-11T05:12:48.381Z,101144.75
2023-04-11T05:15:15.518Z,101145.13
2023-04-11T05:17:43.005Z,101115.28
2023-04-11T05:20:10.452Z,101126.78
2023-04-11T05:22:38.299Z,101138.75
2023-04-11T05:25:05.985Z,101033.75
2023-04-11T05:27:32.752Z,101132.28
2023-04-11T05:30:01.244Z,101106.69
2023-04-11T05:32:28.018Z,101115.38
2023-04-11T05:34:58.684Z,101115.03
2023-04-11T05:37:26.322Z,101116.47
2023-04-11T05:39:53.221Z,101001.34
2023-04-11T05:42:20.079Z,101138.03
2023-04-11T05:44:46.917Z,101108.75
2023-04-11T05:47:13.721Z,101131.19
2023-04-11T05:49:40.665Z,101151.09
2023-04-11T05:52:07.608Z,101152.75
2023-04-11T05:54:35.556Z,101101.75
2023-04-11T05:57:02.884Z,101134.31
2023-04-11T05:59:33.307Z,101114.97
2023-04-11T06:02:00.242Z,101146.56
2023-04-11T06:04:27.257Z,101155.25
2023-04-11T06:06:55.798Z,101152.41
2023-04-11T06:09:22.549Z,101100.59
2023-04-11T06:11:49.270Z,101144.13
2023-04-11T06:14:16.267Z,101153.59
2023-04-11T06:16:43.022Z,101155.28
2023-04-11T06:19:09.928Z,101160.91
2023-04-11T06:21:36.786Z,101160.88
2023-04-11T06:24:10.299Z,101142.91
2023-04-11T06:26:37.317Z,101155.47
2023-04-11T06:29:04.561Z,101126.06
2023-04-11T06:31:31.389Z,101142.59
2023-04-11T06:33:58.841Z,101163.50
2023-04-11T06:36:26.158Z,101170.25
2023-04-11T06:38:53.075Z,101159.59
2023-04-11T06:41:19.961Z,101159.59
2023-04-11T06:43:46.748Z,101161.25
2023-04-11T06:46:13.622Z,101153.44
2023-04-11T06:48:40.544Z,101161.25
2023-04-11T06:51:09.222Z,101150.75
2023-04-11T06:53:36.123Z,101157.16
2023-04-11T06:56:11.480Z,101154.66
2023-04-11T06:58:38.217Z,101155.75
2023-04-11T07:01:05.204Z,101159.44
2023-04-11T07:03:32.731Z,101127.31
2023-04-11T07:05:59.694Z,101153.81
2023-04-11T07:08:26.447Z,101143.97
2023-04-11T07:10:53.269Z,101141.16
2023-04-11T07:13:21.470Z,101151.28
2023-04-11T07:15:48.335Z,101140.00
2023-04-11T07:18:15.308Z,101146.06
2023-04-11T07:20:42.125Z,101144.91
2023-04-11T07:23:08.969Z,101137.59
2023-04-11T07:25:35.821Z,101158.31
2023-04-11T07:28:08.289Z,101152.00
2023-04-11T07:30:38.406Z,101150.25
2023-04-11T07:33:05.503Z,101153.72
2023-04-11T07:35:34.828Z,101150.28
2023-04-11T07:38:01.948Z,101126.38
2023-04-11T07:40:29.098Z,101145.19
2023-04-11T07:42:55.828Z,101109.69
2023-04-11T07:45:22.849Z,101147.84
2023-04-11T07:47:49.681Z,101122.38
2023-04-11T07:50:16.426Z,101148.47
2023-04-11T07:52:43.488Z,101142.97
2023-04-11T07:55:13.079Z,101135.81
2023-04-11T07:57:39.858Z,101142.34
2023-04-11T08:00:10.218Z,101138.53
2023-04-11T08:02:38.369Z,101147.84
2023-04-11T08:05:05.618Z,101141.06
2023-04-11T08:07:32.684Z,101153.13
2023-04-11T08:09:59.666Z,101123.53
2023-04-11T08:12:26.430Z,101142.97
2023-04-11T08:14:53.412Z,101149.06
2023-04-11T08:17:27.595Z,101140.88
2023-04-11T08:19:58.153Z,101112.03
2023-04-11T08:22:26.078Z,101047.19
2023-04-11T08:24:52.919Z,101150.94
2023-04-11T08:27:20.142Z,101155.13
2023-04-11T08:29:46.923Z,101073.13
2023-04-11T08:32:13.648Z,101151.88
2023-04-11T08:34:40.608Z,101145.59
2023-04-11T08:37:07.394Z,101146.34
2023-04-11T08:39:34.255Z,101122.09
2023-04-11T08:42:01.356Z,101114.28
2023-04-11T08:44:28.077Z,101128.06
2023-04-11T08:46:54.836Z,101140.81
2023-04-11T08:49:24.748Z,101140.84
2023-04-11T08:51:53.425Z,101132.88
2023-04-11T08:54:20.165Z,101141.03
2023-04-11T08:56:47.764Z,101134.84
2023-04-11T08:59:14.484Z,101135.88
2023-04-11T09:01:41.435Z,101102.19
2023-04-11T09:04:08.848Z,101049.47
2023-04-11T09:06:35.611Z,101128.78
2023-04-11T09:09:08.225Z,101138.13
2023-04-11T09:11:54.201Z,101130.78
2023-04-11T09:14:24.641Z,101141.25
2023-04-11T09:17:06.978Z,101142.06
2023-04-11T09:19:35.072Z,101112.47
2023-04-11T09:22:05.496Z,101140.84
2023-04-11T09:24:33.990Z,101131.78
2023-04-11T09:27:15.970Z,101142.97
2023-04-11T09:29:45.646Z,101142.03
2023-04-11T09:32:34.684Z,101154.41
2023-04-11T09:35:07.820Z,101146.00
2023-04-11T09:37:58.405Z,101154.75
2023-04-11T09:40:27.888Z,101153.25
2023-04-11T09:42:57.871Z,101157.06
2023-04-11T09:45:25.509Z,101152.44
2023-04-11T09:47:53.908Z,101153.09
2023-04-11T09:50:20.934Z,101166.38
2023-04-11T09:52:47.743Z,101163.16
2023-04-11T09:55:16.579Z,101158.38
2023-04-11T09:57:50.556Z,101120.94
2023-04-11T10:00:30.450Z,101157.59
2023-04-11T10:02:57.434Z,101158.28
2023-04-11T10:05:28.597Z,101146.75
2023-04-11T10:08:33.041Z,101154.91
2023-04-11T10:11:00.320Z,101138.97
2023-04-11T10:13:43.145Z,101152.47
2023-04-11T10:16:13.643Z,101158.28
2023-04-11T10:19:04.778Z,101157.25
2023-04-11T10:21:32.901Z,101165.34
2023-04-11T10:24:16.274Z,101150.22
2023-04-11T10:27:05.013Z,101143.06
2023-04-11T10:29:34.946Z,101148.78
2023-04-11T10:32:14.039Z,101132.41
2023-04-11T10:34:42.199Z,101139.97
2023-04-11T10:37:09.880Z,101141.34
2023-04-11T10:39:52.125Z,101144.53
2023-04-11T10:42:28.393Z,101147.34
2023-04-11T10:45:13.690Z,101144.22
2023-04-11T10:47:40.568Z,101143.16
2023-04-11T10:50:35.361Z,101135.63
2023-04-11T10:53:05.435Z,101151.94
2023-04-11T10:55:48.674Z,101141.63
2023-04-11T10:58:22.364Z,101129.97
2023-04-11T11:00:52.633Z,101147.91
2023-04-11T11:03:30.951Z,101140.94
2023-04-11T11:05:59.302Z,101115.38
2023-04-11T11:08:38.057Z,101147.91
2023-04-11T11:11:08.691Z,101140.19
2023-04-11T11:13:43.443Z,101139.41
2023-04-11T11:16:16.765Z,101135.97
2023-04-11T11:19:01.781Z,101144.69
2023-04-11T11:21:30.518Z,101162.22
2023-04-11T11:24:01.100Z,101170.34
2023-04-11T11:26:43.701Z,101152.47
2023-04-11T11:29:10.810Z,101153.84
2023-04-11T11:31:42.094Z,101117.34
2023-04-11T11:34:23.052Z,101148.16
2023-04-11T11:36:50.744Z,101144.28
2023-04-11T11:39:18.219Z,101135.56
2023-04-11T11:41:46.030Z,101157.06
2023-04-11T11:44:26.670Z,101118.78
2023-04-11T11:47:27.342Z,101134.16
2023-04-11T11:49:54.997Z,101135.91
2023-04-11T11:52:41.119Z,101132.91
2023-04-11T11:55:11.371Z,101137.84
2023-04-11T11:57:38.693Z,101126.66
2023-04-11T12:00:06.168Z,101142.28
2023-04-11T12:02:34.612Z,101120.41
2023-04-11T12:05:04.172Z,101135.00
2023-04-11T12:07:34.883Z,101125.19
2023-04-11T12:10:02.291Z,101138.22
2023-04-11T12:12:38.731Z,101116.00
2023-04-11T12:15:18.518Z,101119.97
2023-04-11T12:17:50.204Z,101098.69
2023-04-11T12:20:17.057Z,101125.16
2023-04-11T12:22:43.816Z,101117.13
2023-04-11T12:25:14.781Z,101114.78
2023-04-11T12:27:42.596Z,101084.09
2023-04-11T12:30:10.229Z,101091.31
2023-04-11T12:32:37.297Z,101114.63
2023-04-11T12:35:05.309Z,101097.75
2023-04-11T12:37:32.726Z,101095.81
2023-04-11T12:39:59.635Z,101109.31
2023-04-11T12:42:27.367Z,101106.13
2023-04-11T12:44:54.629Z,101114.94
2023-04-11T12:47:21.605Z,101097.59
2023-04-11T12:49:48.430Z,101102.53
2023-04-11T12:52:15.209Z,101103.72
2023-04-11T12:54:42.174Z,101105.59
2023-04-11T12:57:08.901Z,101107.09
2023-04-11T12:59:35.726Z,101079.31
2023-04-11T13:02:03.251Z,101103.97
2023-04-11T13:04:30.620Z,101072.06
2023-04-11T13:07:01.402Z,101099.31
2023-04-11T13:09:29.883Z,101081.13
2023-04-11T13:11:57.876Z,101078.19
2023-04-11T13:14:24.722Z,101071.38
2023-04-11T13:16:51.994Z,101094.53
2023-04-11T13:19:18.808Z,101074.50
2023-04-11T13:21:45.707Z,101097.16
2023-04-11T13:24:12.620Z,101090.34
2023-04-11T13:26:39.745Z,101089.50
2023-04-11T13:29:07.751Z,101053.72
2023-04-11T13:31:34.633Z,101085.00
2023-04-11T13:34:02.414Z,101102.53
2023-04-11T13:36:29.321Z,101004.91
2023-04-11T13:38:56.948Z,101069.31
2023-04-11T13:41:27.071Z,101085.63
2023-04-11T13:43:53.916Z,101049.13
2023-04-11T13:46:21.956Z,101063.03
2023-04-11T13:48:48.934Z,101080.06
2023-04-11T13:51:16.056Z,101043.78
2023-04-11T13:53:42.826Z,101061.41
2023-04-11T13:56:10.801Z,101039.28
2023-04-11T13:58:38.348Z,101061.00
2023-04-11T14:01:05.370Z,100992.16
2023-04-11T14:03:33.913Z,101060.44
2023-04-11T14:06:01.281Z,100998.00
2023-04-11T14:08:28.909Z,101055.16
2023-04-11T14:10:56.001Z,101048.75
2023-04-11T14:13:22.906Z,101053.91
2023-04-11T14:16:01.391Z,101039.03
2023-04-11T14:18:34.625Z,101057.03
2023-04-11T14:21:01.940Z,101045.16
2023-04-11T14:23:29.378Z,101046.59
2023-04-11T14:25:56.305Z,101049.59
2023-04-11T14:28:26.536Z,101007.34
2023-04-11T14:30:53.952Z,101044.72
2023-04-11T14:33:21.020Z,101015.50
2023-04-11T14:35:47.823Z,101025.81
2023-04-11T14:38:17.472Z,101005.34
2023-04-11T14:43:11.404Z,101011.25
2023-04-11T14:45:38.246Z,101024.13
2023-04-11T14:48:05.744Z,101019.97
2023-04-11T14:50:32.611Z,101021.81
2023-04-11T14:52:59.368Z,100996.16
2023-04-11T14:55:26.331Z,100991.00
2023-04-11T14:57:54.194Z,100970.78
2023-04-11T15:00:22.026Z,100990.28
2023-04-11T15:02:51.367Z,100979.97
2023-04-11T15:05:18.248Z,100987.13
2023-04-11T15:07:49.015Z,100994.00
2023-04-11T15:10:17.548Z,100969.97
2023-04-11T15:12:44.373Z,100979.50
2023-04-11T15:15:11.445Z,100982.88
2023-04-11T15:17:48.929Z,100968.53
2023-04-11T15:20:16.107Z,100924.38
2023-04-11T15:22:44.498Z,100919.88
2023-04-11T15:25:13.277Z,100957.88
2023-04-11T15:27:40.595Z,100955.56
2023-04-11T15:30:07.899Z,100913.59
2023-04-11T15:32:34.927Z,100882.25
2023-04-11T15:35:01.851Z,100868.09
2023-04-11T15:37:28.870Z,100900.94
2023-04-11T15:39:57.779Z,100942.72
2023-04-11T15:42:25.147Z,100930.91
2023-04-11T15:44:52.026Z,100902.94
2023-04-11T15:47:18.813Z,100940.31
2023-04-11T15:49:45.982Z,100901.00
2023-04-11T15:52:12.822Z,100943.50
2023-04-11T15:54:39.631Z,100929.13
2023-04-11T15:57:06.408Z,100912.31
2023-04-11T15:59:33.957Z,100931.31
2023-04-11T16:02:00.869Z,100923.31
2023-04-11T16:04:27.770Z,100882.69
2023-04-11T16:06:54.798Z,100932.19
2023-04-11T16:09:21.533Z,100890.88
2023-04-11T16:11:48.295Z,100889.06
2023-04-11T16:14:15.127Z,100930.88
2023-04-11T16:16:44.455Z,100921.88
2023-04-11T16:19:11.213Z,100909.88
2023-04-11T16:21:39.058Z,100912.56
2023-04-11T16:24:06.988Z,100913.03
2023-04-11T16:26:33.787Z,100925.06
2023-04-11T16:29:00.727Z,100924.03
2023-04-11T16:31:27.688Z,100924.53
2023-04-11T16:33:55.423Z,100889.88
2023-04-11T16:36:22.596Z,100908.38
2023-04-11T16:38:52.496Z,100890.91
2023-04-11T16:41:19.398Z,100926.72
2023-04-11T16:43:47.039Z,100890.22
2023-04-11T16:46:14.495Z,100920.41
2023-04-11T16:48:44.253Z,100892.59
2023-04-11T16:51:11.502Z,100829.09
2023-04-11T16:53:38.924Z,100871.56
2023-04-11T16:56:06.084Z,100913.75
2023-04-11T16:58:32.919Z,100920.41
2023-04-11T17:01:00.168Z,100887.06
2023-04-11T17:03:27.397Z,100910.25
2023-04-11T17:05:54.378Z,100925.91
2023-04-11T17:08:21.473Z,100923.06
2023-04-11T17:10:48.263Z,100898.88
2023-04-11T17:13:16.142Z,100907.59
2023-04-11T17:15:42.973Z,100870.56
2023-04-11T17:18:09.766Z,100912.91
2023-04-11T17:20:36.857Z,100902.88
2023-04-11T17:23:03.649Z,100897.69
2023-04-11T17:25:30.382Z,100904.84
2023-04-11T17:27:57.778Z,100909.88
2023-04-11T17:30:24.647Z,100909.19
2023-04-11T17:32:51.504Z,100904.16
2023-04-11T17:35:18.567Z,100901.00
2023-04-11T17:37:45.344Z,100890.63
2023-04-11T17:40:15.404Z,100870.47
2023-04-11T17:42:42.247Z,100862.78
2023-04-11T17:45:18.093Z,100882.16
2023-04-11T17:47:45.644Z,100899.78
2023-04-11T17:50:13.111Z,100852.38
2023-04-11T17:52:44.312Z,100884.81
2023-04-11T17:55:13.257Z,100871.78
2023-04-11T17:57:40.244Z,100859.63
2023-04-11T18:00:18.391Z,100881.31
2023-04-11T18:02:48.273Z,100816.59
2023-04-11T18:05:25.012Z,100843.41
2023-04-11T18:07:54.227Z,100850.25
2023-04-11T18:10:22.206Z,100833.56
2023-04-11T18:12:50.202Z,100849.91
2023-04-11T18:15:16.958Z,100880.75
2023-04-11T18:17:46.493Z,100832.88
2023-04-11T18:20:14.237Z,100866.06
2023-04-11T18:22:42.526Z,100844.72
2023-04-11T18:25:09.542Z,100829.69
2023-04-11T18:27:37.417Z,100851.69
2023-04-11T18:30:05.748Z,100813.13
2023-04-11T18:32:38.264Z,100841.66
2023-04-11T18:35:11.874Z,100832.00
2023-04-11T18:37:42.853Z,100860.63
2023-04-11T18:40:14.274Z,100844.28
2023-04-11T18:42:42.466Z,100850.78
2023-04-11T18:45:11.890Z,100826.41
2023-04-11T18:47:39.064Z,100854.13
2023-04-11T18:50:07.077Z,100865.25
2023-04-11T18:52:34.966Z,100858.56
2023-04-11T18:55:02.059Z,100867.38
2023-04-11T18:57:32.307Z,100859.19
2023-04-11T19:00:10.277Z,100861.19
2023-04-11T19:02:40.101Z,100843.88
2023-04-11T19:05:13.982Z,100851.88
2023-04-11T19:07:45.352Z,100844.22
2023-04-11T19:10:12.228Z,100803.38
2023-04-11T19:12:39.302Z,100849.06
2023-04-11T19:15:07.892Z,100813.06
2023-04-11T19:17:35.973Z,100751.97
2023-04-11T19:20:06.940Z,100848.38
2023-04-11T19:22:34.675Z,100841.84
2023-04-11T19:25:01.501Z,100829.16
2023-04-11T19:27:28.418Z,100773.44
2023-04-11T19:29:55.183Z,100841.66
2023-04-11T19:32:21.999Z,100852.13
2023-04-11T19:34:50.802Z,100850.78
2023-04-11T19:37:19.501Z,100859.56
2023-04-11T19:39:46.373Z,100842.03
2023-04-11T19:42:13.910Z,100850.72
2023-04-11T19:44:42.123Z,100857.69
2023-04-11T19:47:08.896Z,100854.97
2023-04-11T19:49:36.003Z,100850.25
2023-04-11T19:52:02.787Z,100850.81
2023-04-11T19:54:30.873Z,100829.47
2023-04-11T19:56:57.741Z,100859.94
2023-04-11T19:59:24.479Z,100815.50
2023-04-11T20:01:53.781Z,100828.88
2023-04-11T20:04:20.710Z,100851.22
2023-04-11T20:06:50.761Z,100866.47
2023-04-11T20:09:17.593Z,100854.78
2023-04-11T20:11:47.337Z,100869.44
2023-04-11T20:14:13.974Z,100853.75
2023-04-11T20:16:40.880Z,100857.56
2023-04-11T20:19:08.614Z,100830.78
2023-04-11T20:21:35.503Z,100846.41
2023-04-11T20:24:02.448Z,100856.13
2023-04-11T20:26:29.412Z,100851.94
2023-04-11T20:28:58.352Z,100825.03
2023-04-11T20:31:25.751Z,100862.22
2023-04-11T20:33:52.853Z,100856.38
2023-04-11T20:36:19.795Z,100810.97
2023-04-11T20:38:46.722Z,100858.47
2023-04-11T20:41:14.033Z,100845.94
2023-04-11T20:43:42.502Z,100854.59
2023-04-11T20:46:09.338Z,100846.78
2023-04-11T20:48:37.929Z,100821.72
2023-04-11T20:51:04.871Z,100826.50
2023-04-11T20:53:31.682Z,100830.19
2023-04-11T20:55:58.637Z,100847.41
2023-04-11T20:58:25.693Z,100849.38
2023-04-11T21:00:55.957Z,100846.38
2023-04-11T21:03:23.189Z,100854.31
2023-04-11T21:05:50.289Z,100858.28
2023-04-11T21:08:17.100Z,100856.63
2023-04-11T21:10:43.997Z,100857.75
2023-04-11T21:13:10.767Z,100826.84
2023-04-11T21:15:37.564Z,100827.13
2023-04-11T21:18:06.839Z,100843.88
2023-04-11T21:20:34.623Z,100802.09
2023-04-11T21:23:02.781Z,100860.78
2023-04-11T21:25:29.685Z,100858.47
2023-04-11T21:27:56.443Z,100849.69
2023-04-11T21:30:23.372Z,100851.69
2023-04-11T21:32:50.354Z,100862.13
2023-04-11T21:35:17.175Z,100857.66
2023-04-11T21:37:44.442Z,100824.72
2023-04-11T21:40:12.943Z,100803.53
2023-04-11T21:42:39.897Z,100841.34
2023-04-11T21:45:08.403Z,100849.00
2023-04-11T21:47:35.399Z,100854.63
2023-04-11T21:50:02.427Z,100850.97
2023-04-11T21:52:29.176Z,100842.63
2023-04-11T21:54:56.161Z,100847.09
2023-04-11T21:57:22.911Z,100848.88
2023-04-11T21:59:49.658Z,100787.28
2023-04-11T22:02:16.592Z,100828.81
2023-04-11T22:04:56.436Z,100780.81
2023-04-11T22:07:32.411Z,100821.69
2023-04-11T22:10:03.573Z,100842.09
2023-04-11T22:12:30.490Z,100833.19
2023-04-11T22:14:57.413Z,100840.94
2023-04-11T22:17:24.244Z,100827.53
2023-04-11T22:19:51.169Z,100822.13
2023-04-11T22:22:18.821Z,100837.59
2023-04-11T22:24:48.980Z,100804.16
2023-04-11T22:27:18.413Z,100791.88
2023-04-11T22:29:45.538Z,100821.50
2023-04-11T22:32:12.412Z,100833.63
2023-04-11T22:34:39.392Z,100806.38
2023-04-11T22:37:06.142Z,100800.63
2023-04-11T22:39:33.365Z,100822.88
2023-04-11T22:42:00.522Z,100754.81
2023-04-11T22:44:27.264Z,100822.88
2023-04-11T22:47:01.370Z,100795.06
2023-04-11T22:49:28.143Z,100820.06
2023-04-11T22:51:59.446Z,100818.69
2023-04-11T22:54:27.488Z,100775.97
2023-04-11T22:56:56.850Z,100771.50
2023-04-11T22:59:24.590Z,100707.56
2023-04-11T23:01:53.003Z,100731.75
2023-04-11T23:04:20.738Z,100750.75
2023-04-11T23:06:50.115Z,100746.03
2023-04-11T23:09:17.993Z,100764.72
2023-04-11T23:11:45.527Z,100723.84
2023-04-11T23:14:14.295Z,100786.22
2023-04-11T23:16:42.079Z,100774.94
2023-04-11T23:19:09.314Z,100772.00
2023-04-11T23:21:37.351Z,100741.53
2023-04-11T23:24:05.441Z,100747.50
2023-04-11T23:26:32.292Z,100768.88
2023-04-11T23:29:00.840Z,100778.06
2023-04-11T23:31:27.751Z,100740.81
2023-04-11T23:33:54.911Z,100772.44
2023-04-11T23:36:21.930Z,100719.66
2023-04-11T23:38:48.779Z,100765.50
2023-04-11T23:41:15.657Z,100718.16
2023-04-11T23:43:42.508Z,100767.63
2023-04-11T23:46:09.465Z,100778.28
2023-04-11T23:48:36.424Z,100746.00
2023-04-11T23:51:03.840Z,100768.03
2023-04-11T23:53:32.012Z,100724.50
2023-04-11T23:55:58.757Z,100757.91
2023-04-11T23:58:25.745Z,100757.03
